sensor_id;sensor_type;location;lat;lon;timestamp;temperature;humidity
10536;DHT22;5316;49.538;8.352;2022-10-29T00:02:24;16.50;99.90
10536;DHT22;5316;49.538;8.352;2022-10-29T00:04:51;16.40;99.90
10536;DHT22;5316;49.538;8.352;2022-10-29T00:07:18;16.30;99.90
10536;DHT22;5316;49.538;8.352;2022-10-29T00:09:44;16.20;99.90
10536;DHT22;5316;49.538;8.352;2022-10-29T00:12:11;16.20;99.90
10536;DHT22;5316;49.538;8.352;2022-10-29T00:14:38;16.20;99.90
10536;DHT22;5316;49.538;8.352;2022-10-29T00:17:04;16.10;99.90
10536;DHT22;5316;49.538;8.352;2022-10-29T00:19:33;16.10;99.90
10536;DHT22;5316;49.538;8.352;2022-10-29T00:21:59;16.00;99.90
10536;DHT22;5316;49.538;8.352;2022-10-29T00:24:26;16.00;99.90
10536;DHT22;5316;49.538;8.352;2022-10-29T00:26:53;16.00;99.90
10536;DHT22;5316;49.538;8.352;2022-10-29T00:29:19;16.00;99.90
10536;DHT22;5316;49.538;8.352;2022-10-29T00:31:48;16.00;99.90
10536;DHT22;5316;49.538;8.352;2022-10-29T00:34:15;16.00;99.90
10536;DHT22;5316;49.538;8.352;2022-10-29T00:36:43;16.00;99.90
10536;DHT22;5316;49.538;8.352;2022-10-29T00:39:13;16.00;99.90
10536;DHT22;5316;49.538;8.352;2022-10-29T00:41:40;16.00;99.90
10536;DHT22;5316;49.538;8.352;2022-10-29T00:44:28;16.00;99.90
10536;DHT22;5316;49.538;8.352;2022-10-29T00:46:59;15.90;99.90
10536;DHT22;5316;49.538;8.352;2022-10-29T00:49:28;15.90;99.90
10536;DHT22;5316;49.538;8.352;2022-10-29T00:51:57;15.90;99.90
10536;DHT22;5316;49.538;8.352;2022-10-29T00:54:26;15.90;99.90
10536;DHT22;5316;49.538;8.352;2022-10-29T00:56:56;15.90;99.90
10536;DHT22;5316;49.538;8.352;2022-10-29T00:59:24;15.90;99.90
10536;DHT22;5316;49.538;8.352;2022-10-29T01:01:51;15.90;99.90
10536;DHT22;5316;49.538;8.352;2022-10-29T01:04:21;16.00;99.90
10536;DHT22;5316;49.538;8.352;2022-10-29T01:06:48;15.90;99.90
10536;DHT22;5316;49.538;8.352;2022-10-29T01:09:16;15.90;99.90
10536;DHT22;5316;49.538;8.352;2022-10-29T01:11:50;15.90;99.90
10536;DHT22;5316;49.538;8.352;2022-10-29T01:14:29;15.90;99.90
10536;DHT22;5316;49.538;8.352;2022-10-29T01:17:04;16.00;99.90
10536;DHT22;5316;49.538;8.352;2022-10-29T01:19:58;16.00;99.90
10536;DHT22;5316;49.538;8.352;2022-10-29T01:22:32;16.00;99.90
10536;DHT22;5316;49.538;8.352;2022-10-29T01:25:16;15.90;99.90
10536;DHT22;5316;49.538;8.352;2022-10-29T01:28:00;15.90;99.90
10536;DHT22;5316;49.538;8.352;2022-10-29T01:30:58;15.90;99.90
10536;DHT22;5316;49.538;8.352;2022-10-29T01:33:35;15.90;99.90
10536;DHT22;5316;49.538;8.352;2022-10-29T01:36:10;15.80;99.90
10536;DHT22;5316;49.538;8.352;2022-10-29T01:38:45;15.80;99.90
10536;DHT22;5316;49.538;8.352;2022-10-29T01:41:18;15.80;99.90
10536;DHT22;5316;49.538;8.352;2022-10-29T01:43:50;15.80;99.90
10536;DHT22;5316;49.538;8.352;2022-10-29T01:46:22;15.70;99.90
10536;DHT22;5316;49.538;8.352;2022-10-29T01:48:52;15.70;99.90
10536;DHT22;5316;49.538;8.352;2022-10-29T01:51:27;15.70;99.90
10536;DHT22;5316;49.538;8.352;2022-10-29T01:53:56;15.70;99.90
10536;DHT22;5316;49.538;8.352;2022-10-29T01:56:23;15.60;99.90
10536;DHT22;5316;49.538;8.352;2022-10-29T01:58:53;15.60;99.90
10536;DHT22;5316;49.538;8.352;2022-10-29T02:01:38;15.60;99.90
10536;DHT22;5316;49.538;8.352;2022-10-29T02:04:22;15.60;99.90
10536;DHT22;5316;49.538;8.352;2022-10-29T02:06:55;15.50;99.90
10536;DHT22;5316;49.538;8.352;2022-10-29T02:09:27;15.50;99.90
10536;DHT22;5316;49.538;8.352;2022-10-29T02:11:58;15.50;99.90
10536;DHT22;5316;49.538;8.352;2022-10-29T02:14:31;15.40;99.90
10536;DHT22;5316;49.538;8.352;2022-10-29T02:17:00;15.40;99.90
10536;DHT22;5316;49.538;8.352;2022-10-29T02:19:28;15.40;99.90
10536;DHT22;5316;49.538;8.352;2022-10-29T02:21:55;15.40;99.90
10536;DHT22;5316;49.538;8.352;2022-10-29T02:24:22;15.30;99.90
10536;DHT22;5316;49.538;8.352;2022-10-29T02:26:49;15.30;99.90
10536;DHT22;5316;49.538;8.352;2022-10-29T02:29:15;15.30;99.90
10536;DHT22;5316;49.538;8.352;2022-10-29T02:31:42;15.20;99.90
10536;DHT22;5316;49.538;8.352;2022-10-29T02:34:11;15.20;99.90
10536;DHT22;5316;49.538;8.352;2022-10-29T02:36:38;15.20;99.90
10536;DHT22;5316;49.538;8.352;2022-10-29T02:39:04;15.20;99.90
10536;DHT22;5316;49.538;8.352;2022-10-29T02:41:31;15.20;99.90
10536;DHT22;5316;49.538;8.352;2022-10-29T02:43:58;15.20;99.90
10536;DHT22;5316;49.538;8.352;2022-10-29T02:46:25;15.20;99.90
10536;DHT22;5316;49.538;8.352;2022-10-29T02:48:52;15.20;99.90
10536;DHT22;5316;49.538;8.352;2022-10-29T02:51:20;15.40;99.90
10536;DHT22;5316;49.538;8.352;2022-10-29T02:53:47;15.20;99.90
10536;DHT22;5316;49.538;8.352;2022-10-29T02:56:13;15.20;99.90
10536;DHT22;5316;49.538;8.352;2022-10-29T02:58:40;15.10;99.90
10536;DHT22;5316;49.538;8.352;2022-10-29T03:01:07;15.10;99.90
10536;DHT22;5316;49.538;8.352;2022-10-29T03:03:33;15.10;99.90
10536;DHT22;5316;49.538;8.352;2022-10-29T03:06:00;15.10;99.90
10536;DHT22;5316;49.538;8.352;2022-10-29T03:08:28;15.10;99.90
10536;DHT22;5316;49.538;8.352;2022-10-29T03:10:55;15.20;99.90
10536;DHT22;5316;49.538;8.352;2022-10-29T03:13:24;15.10;99.90
10536;DHT22;5316;49.538;8.352;2022-10-29T03:15:52;15.10;99.90
10536;DHT22;5316;49.538;8.352;2022-10-29T03:18:18;15.10;99.90
10536;DHT22;5316;49.538;8.352;2022-10-29T03:20:45;15.10;99.90
10536;DHT22;5316;49.538;8.352;2022-10-29T03:23:12;15.10;99.90
10536;DHT22;5316;49.538;8.352;2022-10-29T03:25:40;15.10;99.90
10536;DHT22;5316;49.538;8.352;2022-10-29T03:28:07;15.10;99.90
10536;DHT22;5316;49.538;8.352;2022-10-29T03:30:34;15.10;99.90
10536;DHT22;5316;49.538;8.352;2022-10-29T03:33:01;15.10;99.90
10536;DHT22;5316;49.538;8.352;2022-10-29T03:35:28;15.10;99.90
10536;DHT22;5316;49.538;8.352;2022-10-29T03:37:54;15.10;99.90
10536;DHT22;5316;49.538;8.352;2022-10-29T03:40:21;15.10;99.90
10536;DHT22;5316;49.538;8.352;2022-10-29T03:42:49;15.10;99.90
10536;DHT22;5316;49.538;8.352;2022-10-29T03:45:16;15.10;99.90
10536;DHT22;5316;49.538;8.352;2022-10-29T03:47:43;15.10;99.90
10536;DHT22;5316;49.538;8.352;2022-10-29T03:50:09;15.10;99.90
10536;DHT22;5316;49.538;8.352;2022-10-29T03:52:36;15.10;99.90
10536;DHT22;5316;49.538;8.352;2022-10-29T03:55:04;15.10;99.90
10536;DHT22;5316;49.538;8.352;2022-10-29T03:57:31;15.10;99.90
10536;DHT22;5316;49.538;8.352;2022-10-29T03:59:59;15.10;99.90
10536;DHT22;5316;49.538;8.352;2022-10-29T04:02:26;15.10;99.90
10536;DHT22;5316;49.538;8.352;2022-10-29T04:04:53;15.10;99.90
10536;DHT22;5316;49.538;8.352;2022-10-29T04:07:20;15.10;99.90
10536;DHT22;5316;49.538;8.352;2022-10-29T04:09:46;15.10;99.90
10536;DHT22;5316;49.538;8.352;2022-10-29T04:12:13;15.10;99.90
10536;DHT22;5316;49.538;8.352;2022-10-29T04:14:40;15.10;99.90
10536;DHT22;5316;49.538;8.352;2022-10-29T04:17:10;15.10;99.90
10536;DHT22;5316;49.538;8.352;2022-10-29T04:19:37;15.10;99.90
10536;DHT22;5316;49.538;8.352;2022-10-29T04:22:03;15.10;99.90
10536;DHT22;5316;49.538;8.352;2022-10-29T04:24:30;15.10;99.90
10536;DHT22;5316;49.538;8.352;2022-10-29T04:26:57;15.10;99.90
10536;DHT22;5316;49.538;8.352;2022-10-29T04:29:24;15.20;99.90
10536;DHT22;5316;49.538;8.352;2022-10-29T04:31:51;15.20;99.90
10536;DHT22;5316;49.538;8.352;2022-10-29T04:34:19;15.30;99.90
10536;DHT22;5316;49.538;8.352;2022-10-29T04:36:45;15.40;99.90
10536;DHT22;5316;49.538;8.352;2022-10-29T04:39:12;15.30;99.90
10536;DHT22;5316;49.538;8.352;2022-10-29T04:41:39;15.50;99.90
10536;DHT22;5316;49.538;8.352;2022-10-29T04:44:06;15.40;99.90
10536;DHT22;5316;49.538;8.352;2022-10-29T04:46:32;15.40;99.90
10536;DHT22;5316;49.538;8.352;2022-10-29T04:48:59;15.40;99.90
10536;DHT22;5316;49.538;8.352;2022-10-29T04:51:27;15.40;99.90
10536;DHT22;5316;49.538;8.352;2022-10-29T04:53:54;15.40;99.90
10536;DHT22;5316;49.538;8.352;2022-10-29T04:56:21;15.40;99.90
10536;DHT22;5316;49.538;8.352;2022-10-29T04:58:50;15.40;99.90
10536;DHT22;5316;49.538;8.352;2022-10-29T05:01:17;15.50;99.90
10536;DHT22;5316;49.538;8.352;2022-10-29T05:03:44;15.50;99.90
10536;DHT22;5316;49.538;8.352;2022-10-29T05:06:10;15.50;99.90
10536;DHT22;5316;49.538;8.352;2022-10-29T05:08:39;15.50;99.90
10536;DHT22;5316;49.538;8.352;2022-10-29T05:11:06;15.50;99.90
10536;DHT22;5316;49.538;8.352;2022-10-29T05:13:34;15.50;99.90
10536;DHT22;5316;49.538;8.352;2022-10-29T05:16:01;15.50;99.90
10536;DHT22;5316;49.538;8.352;2022-10-29T05:18:28;15.50;99.90
10536;DHT22;5316;49.538;8.352;2022-10-29T05:20:55;15.60;99.90
10536;DHT22;5316;49.538;8.352;2022-10-29T05:23:22;15.50;99.90
10536;DHT22;5316;49.538;8.352;2022-10-29T05:25:50;15.50;99.90
10536;DHT22;5316;49.538;8.352;2022-10-29T05:28:18;15.50;99.90
10536;DHT22;5316;49.538;8.352;2022-10-29T05:30:46;15.50;99.90
10536;DHT22;5316;49.538;8.352;2022-10-29T05:33:15;15.40;99.90
10536;DHT22;5316;49.538;8.352;2022-10-29T05:35:42;15.30;99.90
10536;DHT22;5316;49.538;8.352;2022-10-29T05:38:10;15.30;99.90
10536;DHT22;5316;49.538;8.352;2022-10-29T05:40:37;15.20;99.90
10536;DHT22;5316;49.538;8.352;2022-10-29T05:43:06;15.20;99.90
10536;DHT22;5316;49.538;8.352;2022-10-29T05:45:33;15.20;99.90
10536;DHT22;5316;49.538;8.352;2022-10-29T05:48:01;15.10;99.90
10536;DHT22;5316;49.538;8.352;2022-10-29T05:50:29;15.10;99.90
10536;DHT22;5316;49.538;8.352;2022-10-29T05:52:56;15.10;99.90
10536;DHT22;5316;49.538;8.352;2022-10-29T05:55:23;15.00;99.90
10536;DHT22;5316;49.538;8.352;2022-10-29T05:57:54;15.00;99.90
10536;DHT22;5316;49.538;8.352;2022-10-29T06:00:24;15.00;99.90
10536;DHT22;5316;49.538;8.352;2022-10-29T06:02:51;14.90;99.90
10536;DHT22;5316;49.538;8.352;2022-10-29T06:05:18;14.90;99.90
10536;DHT22;5316;49.538;8.352;2022-10-29T06:07:45;14.90;99.90
10536;DHT22;5316;49.538;8.352;2022-10-29T06:10:11;14.90;99.90
10536;DHT22;5316;49.538;8.352;2022-10-29T06:12:38;14.90;99.90
10536;DHT22;5316;49.538;8.352;2022-10-29T06:15:06;15.00;99.90
10536;DHT22;5316;49.538;8.352;2022-10-29T06:17:39;15.00;99.90
10536;DHT22;5316;49.538;8.352;2022-10-29T06:20:08;15.00;99.90
10536;DHT22;5316;49.538;8.352;2022-10-29T06:22:35;15.00;99.90
10536;DHT22;5316;49.538;8.352;2022-10-29T06:25:02;15.00;99.90
10536;DHT22;5316;49.538;8.352;2022-10-29T06:27:29;15.00;99.90
10536;DHT22;5316;49.538;8.352;2022-10-29T06:29:56;14.90;99.90
10536;DHT22;5316;49.538;8.352;2022-10-29T06:32:22;15.00;99.90
10536;DHT22;5316;49.538;8.352;2022-10-29T06:34:50;15.00;99.90
10536;DHT22;5316;49.538;8.352;2022-10-29T06:37:17;15.00;99.90
10536;DHT22;5316;49.538;8.352;2022-10-29T06:39:44;15.00;99.90
10536;DHT22;5316;49.538;8.352;2022-10-29T06:42:10;14.90;99.90
10536;DHT22;5316;49.538;8.352;2022-10-29T06:44:38;14.90;99.90
10536;DHT22;5316;49.538;8.352;2022-10-29T06:47:04;14.90;99.90
10536;DHT22;5316;49.538;8.352;2022-10-29T06:49:31;14.80;99.90
10536;DHT22;5316;49.538;8.352;2022-10-29T06:51:59;14.90;99.90
10536;DHT22;5316;49.538;8.352;2022-10-29T06:54:26;14.90;99.90
10536;DHT22;5316;49.538;8.352;2022-10-29T06:56:53;14.90;99.90
10536;DHT22;5316;49.538;8.352;2022-10-29T06:59:19;14.80;99.90
10536;DHT22;5316;49.538;8.352;2022-10-29T07:01:47;14.90;99.90
10536;DHT22;5316;49.538;8.352;2022-10-29T07:04:14;14.90;99.90
10536;DHT22;5316;49.538;8.352;2022-10-29T07:06:42;14.90;99.90
10536;DHT22;5316;49.538;8.352;2022-10-29T07:09:11;14.90;99.90
10536;DHT22;5316;49.538;8.352;2022-10-29T07:11:38;15.00;99.90
10536;DHT22;5316;49.538;8.352;2022-10-29T07:14:05;15.00;99.90
10536;DHT22;5316;49.538;8.352;2022-10-29T07:16:33;15.00;99.90
10536;DHT22;5316;49.538;8.352;2022-10-29T07:18:59;15.10;99.90
10536;DHT22;5316;49.538;8.352;2022-10-29T07:21:26;15.00;99.90
10536;DHT22;5316;49.538;8.352;2022-10-29T07:23:53;15.00;99.90
10536;DHT22;5316;49.538;8.352;2022-10-29T07:26:21;15.10;99.90
10536;DHT22;5316;49.538;8.352;2022-10-29T07:28:48;15.10;99.90
10536;DHT22;5316;49.538;8.352;2022-10-29T07:31:15;15.20;99.90
10536;DHT22;5316;49.538;8.352;2022-10-29T07:33:41;15.20;99.90
10536;DHT22;5316;49.538;8.352;2022-10-29T07:36:08;15.30;99.90
10536;DHT22;5316;49.538;8.352;2022-10-29T07:38:35;15.30;99.90
10536;DHT22;5316;49.538;8.352;2022-10-29T07:41:02;15.50;99.90
10536;DHT22;5316;49.538;8.352;2022-10-29T07:43:30;15.40;99.90
10536;DHT22;5316;49.538;8.352;2022-10-29T07:45:56;15.50;99.90
10536;DHT22;5316;49.538;8.352;2022-10-29T07:48:23;15.50;99.90
10536;DHT22;5316;49.538;8.352;2022-10-29T07:50:50;15.50;99.90
10536;DHT22;5316;49.538;8.352;2022-10-29T07:53:17;15.60;99.90
10536;DHT22;5316;49.538;8.352;2022-10-29T07:55:43;15.60;99.90
10536;DHT22;5316;49.538;8.352;2022-10-29T07:58:17;15.70;99.90
10536;DHT22;5316;49.538;8.352;2022-10-29T08:00:45;15.80;99.90
10536;DHT22;5316;49.538;8.352;2022-10-29T08:03:12;15.80;99.90
10536;DHT22;5316;49.538;8.352;2022-10-29T08:05:39;15.80;99.90
10536;DHT22;5316;49.538;8.352;2022-10-29T08:08:06;15.90;99.90
10536;DHT22;5316;49.538;8.352;2022-10-29T08:10:33;15.90;99.90
10536;DHT22;5316;49.538;8.352;2022-10-29T08:13:02;15.90;99.90
10536;DHT22;5316;49.538;8.352;2022-10-29T08:15:31;16.00;99.90
10536;DHT22;5316;49.538;8.352;2022-10-29T08:18:00;16.10;99.90
10536;DHT22;5316;49.538;8.352;2022-10-29T08:20:28;16.10;99.90
10536;DHT22;5316;49.538;8.352;2022-10-29T08:22:58;16.20;99.90
10536;DHT22;5316;49.538;8.352;2022-10-29T08:25:25;16.30;99.90
10536;DHT22;5316;49.538;8.352;2022-10-29T08:27:59;16.30;99.90
10536;DHT22;5316;49.538;8.352;2022-10-29T08:30:26;16.30;99.90
10536;DHT22;5316;49.538;8.352;2022-10-29T08:32:53;16.40;99.90
10536;DHT22;5316;49.538;8.352;2022-10-29T08:35:21;16.50;99.90
10536;DHT22;5316;49.538;8.352;2022-10-29T08:37:48;16.60;99.90
10536;DHT22;5316;49.538;8.352;2022-10-29T08:40:24;16.60;99.90
10536;DHT22;5316;49.538;8.352;2022-10-29T08:43:06;16.70;99.90
10536;DHT22;5316;49.538;8.352;2022-10-29T08:45:44;16.80;99.90
10536;DHT22;5316;49.538;8.352;2022-10-29T08:48:23;16.80;99.90
10536;DHT22;5316;49.538;8.352;2022-10-29T08:50:58;16.80;99.90
10536;DHT22;5316;49.538;8.352;2022-10-29T08:53:32;16.80;99.90
10536;DHT22;5316;49.538;8.352;2022-10-29T08:56:00;16.90;99.90
10536;DHT22;5316;49.538;8.352;2022-10-29T08:58:32;16.90;99.90
10536;DHT22;5316;49.538;8.352;2022-10-29T09:01:00;17.00;99.90
10536;DHT22;5316;49.538;8.352;2022-10-29T09:03:28;17.00;99.90
10536;DHT22;5316;49.538;8.352;2022-10-29T09:06:05;17.10;99.90
10536;DHT22;5316;49.538;8.352;2022-10-29T09:08:49;17.20;99.90
10536;DHT22;5316;49.538;8.352;2022-10-29T09:11:34;17.20;99.90
10536;DHT22;5316;49.538;8.352;2022-10-29T09:14:16;17.20;99.90
10536;DHT22;5316;49.538;8.352;2022-10-29T09:16:52;17.20;99.90
10536;DHT22;5316;49.538;8.352;2022-10-29T09:19:32;17.20;99.90
10536;DHT22;5316;49.538;8.352;2022-10-29T09:22:12;17.20;99.90
10536;DHT22;5316;49.538;8.352;2022-10-29T09:24:49;17.30;99.90
10536;DHT22;5316;49.538;8.352;2022-10-29T09:27:22;17.30;99.90
10536;DHT22;5316;49.538;8.352;2022-10-29T09:30:03;17.30;99.90
10536;DHT22;5316;49.538;8.352;2022-10-29T09:32:34;17.40;99.90
10536;DHT22;5316;49.538;8.352;2022-10-29T09:35:05;17.50;99.90
10536;DHT22;5316;49.538;8.352;2022-10-29T09:37:44;17.50;99.90
10536;DHT22;5316;49.538;8.352;2022-10-29T09:40:18;17.60;99.90
10536;DHT22;5316;49.538;8.352;2022-10-29T09:42:50;17.70;99.90
10536;DHT22;5316;49.538;8.352;2022-10-29T09:45:23;17.80;99.90
10536;DHT22;5316;49.538;8.352;2022-10-29T09:47:59;17.90;99.90
10536;DHT22;5316;49.538;8.352;2022-10-29T09:50:34;18.00;99.90
10536;DHT22;5316;49.538;8.352;2022-10-29T09:53:07;18.00;99.90
10536;DHT22;5316;49.538;8.352;2022-10-29T09:55:38;18.00;99.90
10536;DHT22;5316;49.538;8.352;2022-10-29T09:58:05;18.10;99.90
10536;DHT22;5316;49.538;8.352;2022-10-29T10:00:33;18.10;99.90
10536;DHT22;5316;49.538;8.352;2022-10-29T10:03:03;18.20;99.90
10536;DHT22;5316;49.538;8.352;2022-10-29T10:05:32;18.20;99.90
10536;DHT22;5316;49.538;8.352;2022-10-29T10:08:06;18.30;99.90
10536;DHT22;5316;49.538;8.352;2022-10-29T10:10:36;18.30;99.90
10536;DHT22;5316;49.538;8.352;2022-10-29T10:13:05;18.40;99.90
10536;DHT22;5316;49.538;8.352;2022-10-29T10:15:39;18.50;99.90
10536;DHT22;5316;49.538;8.352;2022-10-29T10:18:17;18.60;99.90
10536;DHT22;5316;49.538;8.352;2022-10-29T10:20:46;18.70;99.90
10536;DHT22;5316;49.538;8.352;2022-10-29T10:23:26;18.90;99.90
10536;DHT22;5316;49.538;8.352;2022-10-29T10:25:54;19.00;99.90
10536;DHT22;5316;49.538;8.352;2022-10-29T10:28:23;19.20;99.90
10536;DHT22;5316;49.538;8.352;2022-10-29T10:31:10;19.30;99.90
10536;DHT22;5316;49.538;8.352;2022-10-29T10:33:47;19.40;99.90
10536;DHT22;5316;49.538;8.352;2022-10-29T10:36:15;19.50;99.90
10536;DHT22;5316;49.538;8.352;2022-10-29T10:38:47;19.60;99.90
10536;DHT22;5316;49.538;8.352;2022-10-29T10:41:21;19.70;99.90
10536;DHT22;5316;49.538;8.352;2022-10-29T10:43:48;19.80;99.90
10536;DHT22;5316;49.538;8.352;2022-10-29T10:46:20;19.90;99.90
10536;DHT22;5316;49.538;8.352;2022-10-29T10:48:59;20.00;99.90
10536;DHT22;5316;49.538;8.352;2022-10-29T10:51:30;20.10;99.90
10536;DHT22;5316;49.538;8.352;2022-10-29T10:54:00;20.20;99.90
10536;DHT22;5316;49.538;8.352;2022-10-29T10:56:28;20.30;99.90
10536;DHT22;5316;49.538;8.352;2022-10-29T10:59:00;20.40;99.90
10536;DHT22;5316;49.538;8.352;2022-10-29T11:01:30;20.40;99.90
10536;DHT22;5316;49.538;8.352;2022-10-29T11:04:08;20.50;99.90
10536;DHT22;5316;49.538;8.352;2022-10-29T11:06:39;20.60;99.90
10536;DHT22;5316;49.538;8.352;2022-10-29T11:09:15;20.60;99.90
10536;DHT22;5316;49.538;8.352;2022-10-29T11:11:48;20.60;99.90
10536;DHT22;5316;49.538;8.352;2022-10-29T11:14:20;20.70;99.90
10536;DHT22;5316;49.538;8.352;2022-10-29T11:16:51;20.80;99.90
10536;DHT22;5316;49.538;8.352;2022-10-29T11:19:23;20.80;99.90
10536;DHT22;5316;49.538;8.352;2022-10-29T11:22:02;20.80;99.90
10536;DHT22;5316;49.538;8.352;2022-10-29T11:24:40;20.80;99.90
10536;DHT22;5316;49.538;8.352;2022-10-29T11:27:19;20.70;99.90
10536;DHT22;5316;49.538;8.352;2022-10-29T11:29:53;20.70;99.90
10536;DHT22;5316;49.538;8.352;2022-10-29T11:32:26;20.80;99.90
10536;DHT22;5316;49.538;8.352;2022-10-29T11:35:02;20.60;99.90
10536;DHT22;5316;49.538;8.352;2022-10-29T11:37:40;20.50;99.90
10536;DHT22;5316;49.538;8.352;2022-10-29T11:40:44;20.50;99.90
10536;DHT22;5316;49.538;8.352;2022-10-29T11:43:13;20.50;99.90
10536;DHT22;5316;49.538;8.352;2022-10-29T11:45:47;20.50;99.90
10536;DHT22;5316;49.538;8.352;2022-10-29T11:48:23;20.50;99.90
10536;DHT22;5316;49.538;8.352;2022-10-29T11:50:55;20.40;99.90
10536;DHT22;5316;49.538;8.352;2022-10-29T11:53:39;20.50;99.90
10536;DHT22;5316;49.538;8.352;2022-10-29T11:56:16;20.50;99.90
10536;DHT22;5316;49.538;8.352;2022-10-29T11:58:48;20.60;99.90
10536;DHT22;5316;49.538;8.352;2022-10-29T12:01:23;20.60;99.90
10536;DHT22;5316;49.538;8.352;2022-10-29T12:06:51;20.70;99.90
10536;DHT22;5316;49.538;8.352;2022-10-29T12:09:37;20.70;99.90
10536;DHT22;5316;49.538;8.352;2022-10-29T12:12:11;20.80;99.90
10536;DHT22;5316;49.538;8.352;2022-10-29T12:14:46;20.80;99.90
10536;DHT22;5316;49.538;8.352;2022-10-29T12:17:17;20.80;99.90
10536;DHT22;5316;49.538;8.352;2022-10-29T12:19:50;20.90;99.90
10536;DHT22;5316;49.538;8.352;2022-10-29T12:22:27;20.90;99.90
10536;DHT22;5316;49.538;8.352;2022-10-29T12:25:11;20.90;99.90
10536;DHT22;5316;49.538;8.352;2022-10-29T12:27:46;21.00;99.90
10536;DHT22;5316;49.538;8.352;2022-10-29T12:30:15;21.00;99.90
10536;DHT22;5316;49.538;8.352;2022-10-29T12:32:50;21.10;99.90
10536;DHT22;5316;49.538;8.352;2022-10-29T12:35:23;21.10;99.90
10536;DHT22;5316;49.538;8.352;2022-10-29T12:38:09;21.20;99.90
10536;DHT22;5316;49.538;8.352;2022-10-29T12:40:41;21.30;99.90
10536;DHT22;5316;49.538;8.352;2022-10-29T12:43:14;21.30;99.90
10536;DHT22;5316;49.538;8.352;2022-10-29T12:45:46;21.40;99.90
10536;DHT22;5316;49.538;8.352;2022-10-29T12:48:22;21.40;99.90
10536;DHT22;5316;49.538;8.352;2022-10-29T12:50:58;21.50;99.90
10536;DHT22;5316;49.538;8.352;2022-10-29T12:53:35;21.70;99.90
10536;DHT22;5316;49.538;8.352;2022-10-29T12:56:06;21.80;99.90
10536;DHT22;5316;49.538;8.352;2022-10-29T12:58:46;21.80;99.90
10536;DHT22;5316;49.538;8.352;2022-10-29T13:01:42;21.90;99.90
10536;DHT22;5316;49.538;8.352;2022-10-29T13:04:22;21.90;99.90
10536;DHT22;5316;49.538;8.352;2022-10-29T13:06:57;21.90;99.90
10536;DHT22;5316;49.538;8.352;2022-10-29T13:09:26;21.80;99.90
10536;DHT22;5316;49.538;8.352;2022-10-29T13:11:54;21.80;99.90
10536;DHT22;5316;49.538;8.352;2022-10-29T13:14:27;21.80;99.90
10536;DHT22;5316;49.538;8.352;2022-10-29T13:16:57;21.80;99.90
10536;DHT22;5316;49.538;8.352;2022-10-29T13:19:38;21.80;99.90
10536;DHT22;5316;49.538;8.352;2022-10-29T13:22:33;21.80;99.90
10536;DHT22;5316;49.538;8.352;2022-10-29T13:25:28;21.80;99.90
10536;DHT22;5316;49.538;8.352;2022-10-29T13:28:44;21.80;99.90
10536;DHT22;5316;49.538;8.352;2022-10-29T13:31:43;22.00;99.90
10536;DHT22;5316;49.538;8.352;2022-10-29T13:34:10;22.20;99.90
10536;DHT22;5316;49.538;8.352;2022-10-29T13:36:36;22.40;99.90
10536;DHT22;5316;49.538;8.352;2022-10-29T13:39:16;22.50;99.90
10536;DHT22;5316;49.538;8.352;2022-10-29T13:41:48;22.50;99.90
10536;DHT22;5316;49.538;8.352;2022-10-29T13:44:19;22.60;99.90
10536;DHT22;5316;49.538;8.352;2022-10-29T13:46:49;22.50;99.90
10536;DHT22;5316;49.538;8.352;2022-10-29T13:49:21;22.50;99.90
10536;DHT22;5316;49.538;8.352;2022-10-29T13:51:54;22.50;99.90
10536;DHT22;5316;49.538;8.352;2022-10-29T13:54:27;22.50;99.90
10536;DHT22;5316;49.538;8.352;2022-10-29T13:56:58;22.50;99.90
10536;DHT22;5316;49.538;8.352;2022-10-29T13:59:33;22.50;99.90
10536;DHT22;5316;49.538;8.352;2022-10-29T14:02:13;22.50;99.90
10536;DHT22;5316;49.538;8.352;2022-10-29T14:04:47;22.60;99.90
10536;DHT22;5316;49.538;8.352;2022-10-29T14:07:18;22.60;99.90
10536;DHT22;5316;49.538;8.352;2022-10-29T14:09:49;22.60;99.90
10536;DHT22;5316;49.538;8.352;2022-10-29T14:12:20;22.60;99.90
10536;DHT22;5316;49.538;8.352;2022-10-29T14:14:55;22.60;99.90
10536;DHT22;5316;49.538;8.352;2022-10-29T14:17:24;22.50;99.90
10536;DHT22;5316;49.538;8.352;2022-10-29T14:19:51;22.40;99.90
10536;DHT22;5316;49.538;8.352;2022-10-29T14:22:31;22.40;99.90
10536;DHT22;5316;49.538;8.352;2022-10-29T14:25:00;22.30;99.90
10536;DHT22;5316;49.538;8.352;2022-10-29T14:27:27;22.20;99.90
10536;DHT22;5316;49.538;8.352;2022-10-29T14:30:10;22.10;99.90
10536;DHT22;5316;49.538;8.352;2022-10-29T14:32:39;22.00;99.90
10536;DHT22;5316;49.538;8.352;2022-10-29T14:35:12;21.90;99.90
10536;DHT22;5316;49.538;8.352;2022-10-29T14:37:41;21.80;99.90
10536;DHT22;5316;49.538;8.352;2022-10-29T14:40:17;21.70;99.90
10536;DHT22;5316;49.538;8.352;2022-10-29T14:42:47;21.60;99.90
10536;DHT22;5316;49.538;8.352;2022-10-29T14:45:18;21.50;99.90
10536;DHT22;5316;49.538;8.352;2022-10-29T14:47:52;21.40;99.90
10536;DHT22;5316;49.538;8.352;2022-10-29T14:50:21;21.30;99.90
10536;DHT22;5316;49.538;8.352;2022-10-29T14:52:50;21.30;99.90
10536;DHT22;5316;49.538;8.352;2022-10-29T14:55:21;21.20;99.90
10536;DHT22;5316;49.538;8.352;2022-10-29T14:57:50;21.20;99.90
10536;DHT22;5316;49.538;8.352;2022-10-29T15:00:22;21.10;99.90
10536;DHT22;5316;49.538;8.352;2022-10-29T15:02:52;21.00;99.90
10536;DHT22;5316;49.538;8.352;2022-10-29T15:05:22;20.90;99.90
10536;DHT22;5316;49.538;8.352;2022-10-29T15:07:50;20.90;99.90
10536;DHT22;5316;49.538;8.352;2022-10-29T15:10:20;20.80;99.90
10536;DHT22;5316;49.538;8.352;2022-10-29T15:12:48;20.80;99.90
10536;DHT22;5316;49.538;8.352;2022-10-29T15:15:27;20.70;99.90
10536;DHT22;5316;49.538;8.352;2022-10-29T15:17:59;20.70;99.90
10536;DHT22;5316;49.538;8.352;2022-10-29T15:20:31;20.60;99.90
10536;DHT22;5316;49.538;8.352;2022-10-29T15:23:00;20.60;99.90
10536;DHT22;5316;49.538;8.352;2022-10-29T15:25:30;20.60;99.90
10536;DHT22;5316;49.538;8.352;2022-10-29T15:27:57;20.50;99.90
10536;DHT22;5316;49.538;8.352;2022-10-29T15:30:31;20.40;99.90
10536;DHT22;5316;49.538;8.352;2022-10-29T15:33:01;20.40;99.90
10536;DHT22;5316;49.538;8.352;2022-10-29T15:35:32;20.40;99.90
10536;DHT22;5316;49.538;8.352;2022-10-29T15:38:00;20.30;99.90
10536;DHT22;5316;49.538;8.352;2022-10-29T15:40:27;20.30;99.90
10536;DHT22;5316;49.538;8.352;2022-10-29T15:42:54;20.30;99.90
10536;DHT22;5316;49.538;8.352;2022-10-29T15:45:25;20.20;99.90
10536;DHT22;5316;49.538;8.352;2022-10-29T15:47:55;20.20;99.90
10536;DHT22;5316;49.538;8.352;2022-10-29T15:50:25;20.20;99.90
10536;DHT22;5316;49.538;8.352;2022-10-29T15:52:57;20.10;99.90
10536;DHT22;5316;49.538;8.352;2022-10-29T15:55:27;20.00;99.90
10536;DHT22;5316;49.538;8.352;2022-10-29T15:57:59;20.00;99.90
10536;DHT22;5316;49.538;8.352;2022-10-29T16:00:27;19.90;99.90
10536;DHT22;5316;49.538;8.352;2022-10-29T16:02:57;19.90;99.90
10536;DHT22;5316;49.538;8.352;2022-10-29T16:05:27;19.90;99.90
10536;DHT22;5316;49.538;8.352;2022-10-29T16:07:54;19.80;99.90
10536;DHT22;5316;49.538;8.352;2022-10-29T16:10:21;19.70;99.90
10536;DHT22;5316;49.538;8.352;2022-10-29T16:12:49;19.70;99.90